sensor_id;sensor_type;location;lat;lon;timestamp;P1;durP1;ratioP1;P2;durP2;ratioP2
78622;SDS011;67943;54.412;9.502;2023-05-15T00:00:03;10.63;;;8.13;;
78622;SDS011;67943;54.412;9.502;2023-05-15T00:05:07;8.65;;;7.13;;
78622;SDS011;67943;54.412;9.502;2023-05-15T00:10:09;10.43;;;8.07;;
78622;SDS011;67943;54.412;9.502;2023-05-15T00:15:10;9.27;;;7.68;;
78622;SDS011;67943;54.412;9.502;2023-05-15T00:20:14;9.40;;;8.15;;
78622;SDS011;67943;54.412;9.502;2023-05-15T00:25:15;11.68;;;9.15;;
78622;SDS011;67943;54.412;9.502;2023-05-15T00:30:18;15.57;;;12.32;;
78622;SDS011;67943;54.412;9.502;2023-05-15T00:35:21;15.45;;;12.77;;
78622;SDS011;67943;54.412;9.502;2023-05-15T00:40:23;11.93;;;10.48;;
78622;SDS011;67943;54.412;9.502;2023-05-15T00:45:25;16.25;;;11.90;;
78622;SDS011;67943;54.412;9.502;2023-05-15T00:50:30;19.50;;;14.57;;
78622;SDS011;67943;54.412;9.502;2023-05-15T00:55:33;19.33;;;15.90;;
78622;SDS011;67943;54.412;9.502;2023-05-15T01:00:35;21.15;;;16.77;;
78622;SDS011;67943;54.412;9.502;2023-05-15T01:05:39;18.13;;;14.00;;
78622;SDS011;67943;54.412;9.502;2023-05-15T01:10:41;19.58;;;15.48;;
78622;SDS011;67943;54.412;9.502;2023-05-15T01:15:44;20.17;;;14.88;;
78622;SDS011;67943;54.412;9.502;2023-05-15T01:20:49;19.20;;;14.73;;
78622;SDS011;67943;54.412;9.502;2023-05-15T01:26:12;19.80;;;14.63;;
78622;SDS011;67943;54.412;9.502;2023-05-15T01:31:44;19.92;;;15.48;;
78622;SDS011;67943;54.412;9.502;2023-05-15T01:36:52;19.05;;;14.55;;
78622;SDS011;67943;54.412;9.502;2023-05-15T01:41:59;21.52;;;15.98;;
78622;SDS011;67943;54.412;9.502;2023-05-15T01:47:06;22.90;;;16.83;;
78622;SDS011;67943;54.412;9.502;2023-05-15T01:52:11;29.65;;;22.42;;
78622;SDS011;67943;54.412;9.502;2023-05-15T01:57:16;30.15;;;20.77;;
78622;SDS011;67943;54.412;9.502;2023-05-15T02:02:21;30.63;;;22.73;;
78622;SDS011;67943;54.412;9.502;2023-05-15T02:07:23;30.88;;;23.65;;
78622;SDS011;67943;54.412;9.502;2023-05-15T02:12:26;25.73;;;19.23;;
78622;SDS011;67943;54.412;9.502;2023-05-15T02:17:30;26.05;;;20.50;;
78622;SDS011;67943;54.412;9.502;2023-05-15T02:22:31;24.45;;;19.05;;
78622;SDS011;67943;54.412;9.502;2023-05-15T02:27:35;21.85;;;17.50;;
78622;SDS011;67943;54.412;9.502;2023-05-15T02:32:45;27.98;;;20.23;;
78622;SDS011;67943;54.412;9.502;2023-05-15T02:37:54;23.83;;;17.98;;
78622;SDS011;67943;54.412;9.502;2023-05-15T02:42:58;27.38;;;19.80;;
78622;SDS011;67943;54.412;9.502;2023-05-15T02:48:02;25.38;;;18.55;;
78622;SDS011;67943;54.412;9.502;2023-05-15T02:53:04;23.60;;;17.42;;
78622;SDS011;67943;54.412;9.502;2023-05-15T02:58:06;27.38;;;19.48;;
78622;SDS011;67943;54.412;9.502;2023-05-15T03:03:10;27.77;;;20.92;;
78622;SDS011;67943;54.412;9.502;2023-05-15T03:08:11;27.08;;;19.58;;
78622;SDS011;67943;54.412;9.502;2023-05-15T03:13:13;22.45;;;17.15;;
78622;SDS011;67943;54.412;9.502;2023-05-15T03:18:16;22.77;;;15.95;;
78622;SDS011;67943;54.412;9.502;2023-05-15T03:23:17;23.17;;;16.85;;
78622;SDS011;67943;54.412;9.502;2023-05-15T03:28:19;23.20;;;17.67;;
78622;SDS011;67943;54.412;9.502;2023-05-15T03:33:22;23.13;;;16.95;;
78622;SDS011;67943;54.412;9.502;2023-05-15T03:38:24;24.85;;;16.65;;
78622;SDS011;67943;54.412;9.502;2023-05-15T03:43:25;20.38;;;15.60;;
78622;SDS011;67943;54.412;9.502;2023-05-15T03:48:28;22.52;;;17.05;;
78622;SDS011;67943;54.412;9.502;2023-05-15T03:53:29;24.65;;;16.90;;
78622;SDS011;67943;54.412;9.502;2023-05-15T03:58:31;23.63;;;17.30;;
78622;SDS011;67943;54.412;9.502;2023-05-15T04:03:34;25.52;;;18.58;;
78622;SDS011;67943;54.412;9.502;2023-05-15T04:08:35;24.73;;;17.50;;
78622;SDS011;67943;54.412;9.502;2023-05-15T04:13:37;24.65;;;17.33;;
78622;SDS011;67943;54.412;9.502;2023-05-15T04:18:40;36.45;;;26.00;;
78622;SDS011;67943;54.412;9.502;2023-05-15T04:23:41;37.38;;;25.00;;
78622;SDS011;67943;54.412;9.502;2023-05-15T04:28:43;37.47;;;25.20;;
78622;SDS011;67943;54.412;9.502;2023-05-15T04:33:46;41.42;;;29.65;;
78622;SDS011;67943;54.412;9.502;2023-05-15T04:38:47;39.10;;;26.40;;
78622;SDS011;67943;54.412;9.502;2023-05-15T04:43:49;38.00;;;24.83;;
78622;SDS011;67943;54.412;9.502;2023-05-15T04:48:52;35.20;;;25.15;;
78622;SDS011;67943;54.412;9.502;2023-05-15T04:53:53;31.40;;;21.98;;
78622;SDS011;67943;54.412;9.502;2023-05-15T04:58:55;31.73;;;23.20;;
78622;SDS011;67943;54.412;9.502;2023-05-15T05:03:58;34.03;;;24.92;;
78622;SDS011;67943;54.412;9.502;2023-05-15T05:08:59;31.25;;;21.98;;
78622;SDS011;67943;54.412;9.502;2023-05-15T05:14:01;28.52;;;20.73;;
78622;SDS011;67943;54.412;9.502;2023-05-15T05:19:04;27.27;;;19.80;;
78622;SDS011;67943;54.412;9.502;2023-05-15T05:24:06;31.35;;;24.13;;
78622;SDS011;67943;54.412;9.502;2023-05-15T05:29:07;24.83;;;18.73;;
78622;SDS011;67943;54.412;9.502;2023-05-15T05:34:10;26.98;;;20.63;;
78622;SDS011;67943;54.412;9.502;2023-05-15T05:39:11;31.40;;;21.63;;
78622;SDS011;67943;54.412;9.502;2023-05-15T05:44:13;26.27;;;19.23;;
78622;SDS011;67943;54.412;9.502;2023-05-15T05:49:16;26.90;;;20.98;;
78622;SDS011;67943;54.412;9.502;2023-05-15T05:54:17;22.90;;;17.17;;
78622;SDS011;67943;54.412;9.502;2023-05-15T05:59:19;23.77;;;18.00;;
78622;SDS011;67943;54.412;9.502;2023-05-15T06:04:22;27.48;;;17.38;;
78622;SDS011;67943;54.412;9.502;2023-05-15T06:09:24;25.92;;;17.90;;
78622;SDS011;67943;54.412;9.502;2023-05-15T06:14:25;22.55;;;16.85;;
78622;SDS011;67943;54.412;9.502;2023-05-15T06:19:28;23.83;;;18.00;;
78622;SDS011;67943;54.412;9.502;2023-05-15T06:24:30;20.35;;;15.27;;
78622;SDS011;67943;54.412;9.502;2023-05-15T06:29:32;21.10;;;16.67;;
78622;SDS011;67943;54.412;9.502;2023-05-15T06:34:36;20.17;;;16.67;;
78622;SDS011;67943;54.412;9.502;2023-05-15T06:39:37;20.60;;;16.13;;
78622;SDS011;67943;54.412;9.502;2023-05-15T06:44:39;15.90;;;12.38;;
78622;SDS011;67943;54.412;9.502;2023-05-15T06:49:42;14.32;;;10.73;;
78622;SDS011;67943;54.412;9.502;2023-05-15T06:54:43;15.63;;;11.43;;
78622;SDS011;67943;54.412;9.502;2023-05-15T06:59:45;14.68;;;9.93;;
78622;SDS011;67943;54.412;9.502;2023-05-15T07:04:48;8.30;;;7.10;;
78622;SDS011;67943;54.412;9.502;2023-05-15T07:09:49;8.85;;;6.38;;
78622;SDS011;67943;54.412;9.502;2023-05-15T07:14:51;8.32;;;6.15;;
78622;SDS011;67943;54.412;9.502;2023-05-15T07:19:53;8.10;;;4.90;;
78622;SDS011;67943;54.412;9.502;2023-05-15T07:24:55;8.27;;;5.97;;
78622;SDS011;67943;54.412;9.502;2023-05-15T07:29:56;8.02;;;4.03;;
78622;SDS011;67943;54.412;9.502;2023-05-15T07:34:59;6.30;;;3.58;;
78622;SDS011;67943;54.412;9.502;2023-05-15T07:40:03;6.05;;;3.10;;
78622;SDS011;67943;54.412;9.502;2023-05-15T07:45:07;6.55;;;3.00;;
78622;SDS011;67943;54.412;9.502;2023-05-15T07:50:10;6.40;;;3.05;;
78622;SDS011;67943;54.412;9.502;2023-05-15T07:55:12;6.03;;;3.40;;
78622;SDS011;67943;54.412;9.502;2023-05-15T08:00:14;6.57;;;2.88;;
78622;SDS011;67943;54.412;9.502;2023-05-15T08:05:17;5.38;;;3.20;;
78622;SDS011;67943;54.412;9.502;2023-05-15T08:10:19;4.55;;;3.03;;
78622;SDS011;67943;54.412;9.502;2023-05-15T08:15:20;4.72;;;2.50;;
78622;SDS011;67943;54.412;9.502;2023-05-15T08:20:24;6.50;;;3.13;;
78622;SDS011;67943;54.412;9.502;2023-05-15T08:25:25;5.10;;;2.80;;
78622;SDS011;67943;54.412;9.502;2023-05-15T08:30:27;4.82;;;2.70;;
78622;SDS011;67943;54.412;9.502;2023-05-15T08:35:30;3.75;;;2.83;;
78622;SDS011;67943;54.412;9.502;2023-05-15T08:40:31;4.90;;;2.40;;
78622;SDS011;67943;54.412;9.502;2023-05-15T08:45:33;3.78;;;2.65;;
78622;SDS011;67943;54.412;9.502;2023-05-15T08:50:35;5.05;;;2.45;;
78622;SDS011;67943;54.412;9.502;2023-05-15T08:55:39;4.10;;;2.72;;
78622;SDS011;67943;54.412;9.502;2023-05-15T09:00:40;6.28;;;2.58;;
78622;SDS011;67943;54.412;9.502;2023-05-15T09:05:43;6.10;;;2.92;;
78622;SDS011;67943;54.412;9.502;2023-05-15T09:10:46;3.25;;;2.33;;
78622;SDS011;67943;54.412;9.502;2023-05-15T09:15:49;5.22;;;2.97;;
78622;SDS011;67943;54.412;9.502;2023-05-15T09:20:52;6.20;;;2.70;;
78622;SDS011;67943;54.412;9.502;2023-05-15T09:25:54;9.75;;;3.10;;
78622;SDS011;67943;54.412;9.502;2023-05-15T09:30:58;5.60;;;2.97;;
78622;SDS011;67943;54.412;9.502;2023-05-15T09:36:03;7.47;;;3.20;;
78622;SDS011;67943;54.412;9.502;2023-05-15T09:41:06;6.82;;;3.03;;
78622;SDS011;67943;54.412;9.502;2023-05-15T09:46:08;9.55;;;2.95;;
78622;SDS011;67943;54.412;9.502;2023-05-15T09:51:17;4.60;;;2.75;;
78622;SDS011;67943;54.412;9.502;2023-05-15T09:56:19;5.63;;;2.95;;
78622;SDS011;67943;54.412;9.502;2023-05-15T10:01:21;8.40;;;3.00;;
78622;SDS011;67943;54.412;9.502;2023-05-15T10:06:25;4.30;;;2.80;;
78622;SDS011;67943;54.412;9.502;2023-05-15T10:11:27;5.68;;;2.72;;
78622;SDS011;67943;54.412;9.502;2023-05-15T10:16:31;4.30;;;2.70;;
78622;SDS011;67943;54.412;9.502;2023-05-15T10:21:36;6.72;;;3.17;;
78622;SDS011;67943;54.412;9.502;2023-05-15T10:26:39;5.10;;;3.13;;
78622;SDS011;67943;54.412;9.502;2023-05-15T10:31:42;5.63;;;2.78;;
78622;SDS011;67943;54.412;9.502;2023-05-15T10:36:45;5.85;;;2.80;;
78622;SDS011;67943;54.412;9.502;2023-05-15T10:47:06;6.95;;;2.78;;
78622;SDS011;67943;54.412;9.502;2023-05-15T10:52:09;6.78;;;2.90;;
78622;SDS011;67943;54.412;9.502;2023-05-15T10:57:12;4.93;;;3.20;;
78622;SDS011;67943;54.412;9.502;2023-05-15T11:02:18;5.22;;;3.45;;
78622;SDS011;67943;54.412;9.502;2023-05-15T11:07:23;5.47;;;3.53;;
78622;SDS011;67943;54.412;9.502;2023-05-15T11:12:25;4.68;;;3.00;;
78622;SDS011;67943;54.412;9.502;2023-05-15T11:18:01;4.72;;;3.05;;
78622;SDS011;67943;54.412;9.502;2023-05-15T11:23:04;5.28;;;3.00;;
78622;SDS011;67943;54.412;9.502;2023-05-15T11:28:12;10.27;;;6.93;;
78622;SDS011;67943;54.412;9.502;2023-05-15T11:33:21;5.32;;;3.25;;
78622;SDS011;67943;54.412;9.502;2023-05-15T11:38:24;5.95;;;3.63;;
78622;SDS011;67943;54.412;9.502;2023-05-15T11:43:26;7.72;;;2.85;;
78622;SDS011;67943;54.412;9.502;2023-05-15T11:48:30;7.60;;;4.32;;
78622;SDS011;67943;54.412;9.502;2023-05-15T11:53:33;6.28;;;3.08;;
78622;SDS011;67943;54.412;9.502;2023-05-15T11:58:35;6.63;;;3.28;;
78622;SDS011;67943;54.412;9.502;2023-05-15T12:03:39;7.75;;;3.65;;
78622;SDS011;67943;54.412;9.502;2023-05-15T12:08:42;6.90;;;3.15;;
78622;SDS011;67943;54.412;9.502;2023-05-15T12:13:44;5.47;;;3.20;;
78622;SDS011;67943;54.412;9.502;2023-05-15T12:18:51;7.78;;;3.10;;
78622;SDS011;67943;54.412;9.502;2023-05-15T12:23:54;5.78;;;2.72;;
78622;SDS011;67943;54.412;9.502;2023-05-15T12:28:56;8.40;;;3.08;;
78622;SDS011;67943;54.412;9.502;2023-05-15T12:33:57;4.63;;;2.90;;
78622;SDS011;67943;54.412;9.502;2023-05-15T12:39:04;6.50;;;3.40;;
78622;SDS011;67943;54.412;9.502;2023-05-15T12:44:14;7.03;;;3.72;;
78622;SDS011;67943;54.412;9.502;2023-05-15T12:49:19;5.35;;;3.03;;
78622;SDS011;67943;54.412;9.502;2023-05-15T12:54:24;5.07;;;3.50;;
78622;SDS011;67943;54.412;9.502;2023-05-15T12:59:26;7.40;;;4.65;;
78622;SDS011;67943;54.412;9.502;2023-05-15T13:04:31;8.48;;;4.40;;
78622;SDS011;67943;54.412;9.502;2023-05-15T13:09:34;5.05;;;3.83;;
78622;SDS011;67943;54.412;9.502;2023-05-15T13:14:35;8.23;;;4.18;;
78622;SDS011;67943;54.412;9.502;2023-05-15T13:19:37;8.35;;;5.03;;
78622;SDS011;67943;54.412;9.502;2023-05-15T13:24:40;8.70;;;5.53;;
78622;SDS011;67943;54.412;9.502;2023-05-15T13:29:45;12.15;;;8.20;;
78622;SDS011;67943;54.412;9.502;2023-05-15T13:34:47;11.88;;;8.55;;
78622;SDS011;67943;54.412;9.502;2023-05-15T13:39:50;9.52;;;4.60;;
78622;SDS011;67943;54.412;9.502;2023-05-15T13:44:51;6.75;;;4.78;;
78622;SDS011;67943;54.412;9.502;2023-05-15T13:49:53;7.55;;;4.93;;
78622;SDS011;67943;54.412;9.502;2023-05-15T13:54:56;7.72;;;5.85;;
78622;SDS011;67943;54.412;9.502;2023-05-15T13:59:57;7.43;;;5.07;;
78622;SDS011;67943;54.412;9.502;2023-05-15T14:04:59;6.88;;;4.60;;
78622;SDS011;67943;54.412;9.502;2023-05-15T14:10:02;5.97;;;4.00;;
78622;SDS011;67943;54.412;9.502;2023-05-15T14:15:04;7.55;;;4.38;;
78622;SDS011;67943;54.412;9.502;2023-05-15T14:20:06;6.68;;;4.78;;
78622;SDS011;67943;54.412;9.502;2023-05-15T14:25:11;7.57;;;4.07;;
78622;SDS011;67943;54.412;9.502;2023-05-15T14:30:13;8.80;;;4.60;;
78622;SDS011;67943;54.412;9.502;2023-05-15T14:35:14;9.40;;;4.88;;
78622;SDS011;67943;54.412;9.502;2023-05-15T14:40:17;5.25;;;4.03;;
78622;SDS011;67943;54.412;9.502;2023-05-15T14:45:19;6.43;;;4.28;;
78622;SDS011;67943;54.412;9.502;2023-05-15T14:50:20;5.88;;;3.70;;
78622;SDS011;67943;54.412;9.502;2023-05-15T14:55:23;5.60;;;3.78;;
78622;SDS011;67943;54.412;9.502;2023-05-15T15:00:24;6.10;;;3.10;;
78622;SDS011;67943;54.412;9.502;2023-05-15T15:05:26;4.60;;;2.60;;
78622;SDS011;67943;54.412;9.502;2023-05-15T15:10:29;3.88;;;2.33;;
78622;SDS011;67943;54.412;9.502;2023-05-15T15:15:38;3.03;;;2.00;;
78622;SDS011;67943;54.412;9.502;2023-05-15T15:20:59;4.15;;;2.05;;
78622;SDS011;67943;54.412;9.502;2023-05-15T15:26:02;2.70;;;2.17;;
78622;SDS011;67943;54.412;9.502;2023-05-15T15:31:23;3.20;;;2.30;;
78622;SDS011;67943;54.412;9.502;2023-05-15T15:36:27;3.58;;;1.77;;
78622;SDS011;67943;54.412;9.502;2023-05-15T15:41:29;2.55;;;2.00;;
78622;SDS011;67943;54.412;9.502;2023-05-15T15:46:31;6.00;;;2.97;;
78622;SDS011;67943;54.412;9.502;2023-05-15T15:51:33;6.55;;;4.00;;
78622;SDS011;67943;54.412;9.502;2023-05-15T15:56:35;7.85;;;4.95;;
78622;SDS011;67943;54.412;9.502;2023-05-15T16:01:37;6.50;;;4.85;;
78622;SDS011;67943;54.412;9.502;2023-05-15T16:06:38;9.75;;;5.55;;
78622;SDS011;67943;54.412;9.502;2023-05-15T16:11:41;5.30;;;4.30;;
78622;SDS011;67943;54.412;9.502;2023-05-15T16:16:45;5.13;;;3.83;;
78622;SDS011;67943;54.412;9.502;2023-05-15T16:21:46;7.90;;;4.10;;
78622;SDS011;67943;54.412;9.502;2023-05-15T16:26:49;6.90;;;4.45;;
78622;SDS011;67943;54.412;9.502;2023-05-15T16:31:51;7.50;;;3.95;;
78622;SDS011;67943;54.412;9.502;2023-05-15T16:36:52;6.47;;;4.05;;
78622;SDS011;67943;54.412;9.502;2023-05-15T16:41:55;6.03;;;4.00;;
78622;SDS011;67943;54.412;9.502;2023-05-15T16:46:57;8.02;;;4.05;;
78622;SDS011;67943;54.412;9.502;2023-05-15T16:51:59;7.38;;;3.22;;
78622;SDS011;67943;54.412;9.502;2023-05-15T16:57:02;6.13;;;3.33;;
78622;SDS011;67943;54.412;9.502;2023-05-15T17:02:03;5.97;;;3.15;;
78622;SDS011;67943;54.412;9.502;2023-05-15T17:07:05;6.32;;;2.80;;
78622;SDS011;67943;54.412;9.502;2023-05-15T17:12:08;6.88;;;2.80;;
78622;SDS011;67943;54.412;9.502;2023-05-15T17:17:09;4.90;;;2.50;;
78622;SDS011;67943;54.412;9.502;2023-05-15T17:22:10;5.80;;;2.83;;
78622;SDS011;67943;54.412;9.502;2023-05-15T17:27:13;3.40;;;2.72;;
78622;SDS011;67943;54.412;9.502;2023-05-15T17:32:15;7.90;;;3.35;;
78622;SDS011;67943;54.412;9.502;2023-05-15T17:37:17;5.38;;;2.80;;
78622;SDS011;67943;54.412;9.502;2023-05-15T17:42:20;5.18;;;3.20;;
78622;SDS011;67943;54.412;9.502;2023-05-15T17:47:24;8.73;;;4.30;;
78622;SDS011;67943;54.412;9.502;2023-05-15T17:52:25;7.53;;;3.72;;
78622;SDS011;67943;54.412;9.502;2023-05-15T17:57:28;10.27;;;4.50;;
78622;SDS011;67943;54.412;9.502;2023-05-15T18:02:30;7.03;;;3.80;;
78622;SDS011;67943;54.412;9.502;2023-05-15T18:07:32;10.20;;;4.20;;
78622;SDS011;67943;54.412;9.502;2023-05-15T18:12:34;5.38;;;3.35;;
78622;SDS011;67943;54.412;9.502;2023-05-15T18:17:36;5.15;;;3.28;;
78622;SDS011;67943;54.412;9.502;2023-05-15T18:22:37;7.55;;;3.42;;
78622;SDS011;67943;54.412;9.502;2023-05-15T18:27:41;5.47;;;3.42;;
78622;SDS011;67943;54.412;9.502;2023-05-15T18:32:42;9.43;;;3.60;;
78622;SDS011;67943;54.412;9.502;2023-05-15T18:37:44;6.38;;;3.45;;
78622;SDS011;67943;54.412;9.502;2023-05-15T18:42:47;7.47;;;3.38;;
78622;SDS011;67943;54.412;9.502;2023-05-15T18:47:48;7.25;;;3.50;;
78622;SDS011;67943;54.412;9.502;2023-05-15T18:52:50;10.20;;;3.70;;
78622;SDS011;67943;54.412;9.502;2023-05-15T18:57:53;6.43;;;3.47;;
78622;SDS011;67943;54.412;9.502;2023-05-15T19:02:54;8.63;;;3.90;;
78622;SDS011;67943;54.412;9.502;2023-05-15T19:07:55;9.52;;;3.60;;
78622;SDS011;67943;54.412;9.502;2023-05-15T19:12:58;7.53;;;3.92;;
78622;SDS011;67943;54.412;9.502;2023-05-15T19:18:00;12.50;;;3.75;;
78622;SDS011;67943;54.412;9.502;2023-05-15T19:23:01;6.22;;;4.05;;
78622;SDS011;67943;54.412;9.502;2023-05-15T19:28:04;12.25;;;4.57;;
78622;SDS011;67943;54.412;9.502;2023-05-15T19:33:05;7.18;;;4.32;;
78622;SDS011;67943;54.412;9.502;2023-05-15T19:38:07;5.75;;;3.97;;
78622;SDS011;67943;54.412;9.502;2023-05-15T19:43:10;14.25;;;4.70;;
78622;SDS011;67943;54.412;9.502;2023-05-15T19:48:13;9.15;;;4.60;;
78622;SDS011;67943;54.412;9.502;2023-05-15T19:53:14;9.40;;;4.80;;
78622;SDS011;67943;54.412;9.502;2023-05-15T19:58:17;10.27;;;4.75;;
78622;SDS011;67943;54.412;9.502;2023-05-15T20:03:18;7.85;;;5.05;;
78622;SDS011;67943;54.412;9.502;2023-05-15T20:08:20;11.40;;;5.72;;
78622;SDS011;67943;54.412;9.502;2023-05-15T20:13:23;10.30;;;6.28;;
78622;SDS011;67943;54.412;9.502;2023-05-15T20:18:25;12.25;;;5.95;;
78622;SDS011;67943;54.412;9.502;2023-05-15T20:23:27;11.13;;;6.07;;
78622;SDS011;67943;54.412;9.502;2023-05-15T20:28:30;12.15;;;6.20;;
78622;SDS011;67943;54.412;9.502;2023-05-15T20:33:32;7.47;;;5.38;;
78622;SDS011;67943;54.412;9.502;2023-05-15T20:38:33;7.40;;;5.00;;
78622;SDS011;67943;54.412;9.502;2023-05-15T20:43:36;9.73;;;5.13;;
78622;SDS011;67943;54.412;9.502;2023-05-15T20:48:38;9.65;;;4.47;;
78622;SDS011;67943;54.412;9.502;2023-05-15T20:53:40;7.85;;;4.40;;
78622;SDS011;67943;54.412;9.502;2023-05-15T20:58:43;6.60;;;3.60;;
78622;SDS011;67943;54.412;9.502;2023-05-15T21:03:44;9.13;;;3.70;;
78622;SDS011;67943;54.412;9.502;2023-05-15T21:08:46;6.72;;;3.42;;
78622;SDS011;67943;54.412;9.502;2023-05-15T21:13:49;8.43;;;3.40;;
78622;SDS011;67943;54.412;9.502;2023-05-15T21:18:50;7.15;;;3.65;;
78622;SDS011;67943;54.412;9.502;2023-05-15T21:23:51;8.73;;;3.50;;
78622;SDS011;67943;54.412;9.502;2023-05-15T21:28:54;8.43;;;3.38;;
78622;SDS011;67943;54.412;9.502;2023-05-15T21:33:56;8.73;;;3.15;;
78622;SDS011;67943;54.412;9.502;2023-05-15T21:38:58;5.05;;;3.20;;
78622;SDS011;67943;54.412;9.502;2023-05-15T21:44:00;8.07;;;3.00;;
78622;SDS011;67943;54.412;9.502;2023-05-15T21:49:02;5.93;;;3.15;;
78622;SDS011;67943;54.412;9.502;2023-05-15T21:54:03;10.95;;;3.20;;
78622;SDS011;67943;54.412;9.502;2023-05-15T21:59:06;6.38;;;3.42;;
78622;SDS011;67943;54.412;9.502;2023-05-15T22:04:09;5.45;;;3.08;;
78622;SDS011;67943;54.412;9.502;2023-05-15T22:09:11;8.23;;;3.17;;
78622;SDS011;67943;54.412;9.502;2023-05-15T22:14:13;7.35;;;3.58;;
78622;SDS011;67943;54.412;9.502;2023-05-15T22:19:15;7.10;;;3.15;;
78622;SDS011;67943;54.412;9.502;2023-05-15T22:24:16;7.88;;;3.40;;
78622;SDS011;67943;54.412;9.502;2023-05-15T22:29:19;5.85;;;2.97;;
78622;SDS011;67943;54.412;9.502;2023-05-15T22:34:21;4.93;;;3.20;;
78622;SDS011;67943;54.412;9.502;2023-05-15T22:39:24;4.82;;;2.70;;
78622;SDS011;67943;54.412;9.502;2023-05-15T22:44:27;6.80;;;3.00;;
78622;SDS011;67943;54.412;9.502;2023-05-15T22:49:28;7.53;;;2.63;;
78622;SDS011;67943;54.412;9.502;2023-05-15T22:54:29;5.80;;;2.63;;
78622;SDS011;67943;54.412;9.502;2023-05-15T22:59:32;4.50;;;2.70;;
78622;SDS011;67943;54.412;9.502;2023-05-15T23:04:34;6.38;;;2.83;;
78622;SDS011;67943;54.412;9.502;2023-05-15T23:09:35;5.70;;;2.50;;
78622;SDS011;67943;54.412;9.502;2023-05-15T23:14:38;6.65;;;2.53;;
78622;SDS011;67943;54.412;9.502;2023-05-15T23:19:40;4.28;;;2.58;;
78622;SDS011;67943;54.412;9.502;2023-05-15T23:24:41;5.10;;;2.70;;
78622;SDS011;67943;54.412;9.502;2023-05-15T23:29:44;5.45;;;2.85;;
78622;SDS011;67943;54.412;9.502;2023-05-15T23:34:46;6.68;;;3.30;;
78622;SDS011;67943;54.412;9.502;2023-05-15T23:39:47;6.07;;;3.28;;
78622;SDS011;67943;54.412;9.502;2023-05-15T23:44:50;6.57;;;3.20;;
78622;SDS011;67943;54.412;9.502;2023-05-15T23:49:51;5.07;;;2.70;;
78622;SDS011;67943;54.412;9.502;2023-05-15T23:54:53;8.93;;;3.30;;
78622;SDS011;67943;54.412;9.502;2023-05-15T23:59:56;12.25;;;3.22;;
